sensor_id;sensor_type;location;lat;lon;timestamp;pressure;altitude;pressure_sealevel;temperature;humidity
55418;BME280;41287;47.554;7.844;2023-05-08T00:00:19;98286.63;;;19.15;56.52
55418;BME280;41287;47.554;7.844;2023-05-08T00:02:44;98283.13;;;19.14;56.55
55418;BME280;41287;47.554;7.844;2023-05-08T00:05:10;98285.84;;;19.14;56.52
55418;BME280;41287;47.554;7.844;2023-05-08T00:07:37;98291.28;;;19.14;56.44
55418;BME280;41287;47.554;7.844;2023-05-08T00:10:05;98288.56;;;19.14;56.45
55418;BME280;41287;47.554;7.844;2023-05-08T00:12:31;98291.28;;;19.14;56.42
55418;BME280;41287;47.554;7.844;2023-05-08T00:14:57;98291.28;;;19.14;56.56
55418;BME280;41287;47.554;7.844;2023-05-08T00:17:22;98283.13;;;19.14;56.55
55418;BME280;41287;47.554;7.844;2023-05-08T00:19:47;98276.91;;;19.14;56.48
55418;BME280;41287;47.554;7.844;2023-05-08T00:22:13;98288.56;;;19.14;56.49
55418;BME280;41287;47.554;7.844;2023-05-08T00:24:38;98290.47;;;19.14;56.50
55418;BME280;41287;47.554;7.844;2023-05-08T00:27:04;98287.75;;;19.14;56.52
55418;BME280;41287;47.554;7.844;2023-05-08T00:29:29;98288.56;;;19.14;56.48
55418;BME280;41287;47.554;7.844;2023-05-08T00:31:55;98284.25;;;19.13;56.51
55418;BME280;41287;47.554;7.844;2023-05-08T00:34:20;98294.00;;;19.14;56.41
55418;BME280;41287;47.554;7.844;2023-05-08T00:36:46;98294.00;;;19.14;56.49
55418;BME280;41287;47.554;7.844;2023-05-08T00:39:11;98294.00;;;19.14;56.55
55418;BME280;41287;47.554;7.844;2023-05-08T00:41:36;98292.41;;;19.13;56.54
55418;BME280;41287;47.554;7.844;2023-05-08T00:44:04;98292.41;;;19.13;56.54
55418;BME280;41287;47.554;7.844;2023-05-08T00:46:29;98295.13;;;19.13;56.54
55418;BME280;41287;47.554;7.844;2023-05-08T00:48:55;98294.00;;;19.14;56.55
55418;BME280;41287;47.554;7.844;2023-05-08T00:51:21;98293.19;;;19.14;56.50
55418;BME280;41287;47.554;7.844;2023-05-08T00:53:47;98294.00;;;19.14;56.62
55418;BME280;41287;47.554;7.844;2023-05-08T00:56:15;98297.50;;;19.15;56.49
55418;BME280;41287;47.554;7.844;2023-05-08T00:58:41;98290.47;;;19.14;56.63
55418;BME280;41287;47.554;7.844;2023-05-08T01:01:06;98298.63;;;19.14;56.70
55418;BME280;41287;47.554;7.844;2023-05-08T01:03:34;98297.84;;;19.13;56.54
55418;BME280;41287;47.554;7.844;2023-05-08T01:06:01;98302.47;;;19.13;56.58
55418;BME280;41287;47.554;7.844;2023-05-08T01:08:29;98307.91;;;19.13;56.70
55418;BME280;41287;47.554;7.844;2023-05-08T01:19:26;98306.31;;;19.12;56.44
55418;BME280;41287;47.554;7.844;2023-05-08T01:24:57;98303.59;;;19.12;56.61
55418;BME280;41287;47.554;7.844;2023-05-08T01:32:39;98305.19;;;19.13;56.79
55418;BME280;41287;47.554;7.844;2023-05-08T01:35:11;98303.59;;;19.12;56.67
55418;BME280;41287;47.554;7.844;2023-05-08T01:37:47;98306.31;;;19.12;56.66
55418;BME280;41287;47.554;7.844;2023-05-08T01:40:27;98306.31;;;19.12;56.61
55418;BME280;41287;47.554;7.844;2023-05-08T01:43:09;98301.22;;;19.10;56.59
55418;BME280;41287;47.554;7.844;2023-05-08T01:45:39;98303.59;;;19.12;56.67
55418;BME280;41287;47.554;7.844;2023-05-08T01:48:11;98304.72;;;19.11;56.66
55418;BME280;41287;47.554;7.844;2023-05-08T01:50:42;98300.88;;;19.12;56.62
55418;BME280;41287;47.554;7.844;2023-05-08T01:53:25;98299.63;;;19.09;56.56
55418;BME280;41287;47.554;7.844;2023-05-08T01:55:56;98298.94;;;19.12;56.65
55418;BME280;41287;47.554;7.844;2023-05-08T01:58:23;98301.66;;;19.12;56.75
55418;BME280;41287;47.554;7.844;2023-05-08T02:00:49;98297.34;;;19.11;56.73
55418;BME280;41287;47.554;7.844;2023-05-08T02:03:16;98298.94;;;19.12;56.77
55418;BME280;41287;47.554;7.844;2023-05-08T02:05:43;98300.88;;;19.12;56.76
55418;BME280;41287;47.554;7.844;2023-05-08T02:08:11;98298.16;;;19.12;56.79
55418;BME280;41287;47.554;7.844;2023-05-08T02:10:38;98300.88;;;19.12;56.65
55418;BME280;41287;47.554;7.844;2023-05-08T02:13:05;98307.91;;;19.13;56.78
55418;BME280;41287;47.554;7.844;2023-05-08T02:15:32;98302.78;;;19.11;56.80
55418;BME280;41287;47.554;7.844;2023-05-08T02:18:02;98296.25;;;19.12;56.69
55418;BME280;41287;47.554;7.844;2023-05-08T02:20:30;98293.84;;;19.11;56.80
55418;BME280;41287;47.554;7.844;2023-05-08T02:22:56;98295.44;;;19.12;56.69
55418;BME280;41287;47.554;7.844;2023-05-08T02:25:22;98300.06;;;19.11;56.84
55418;BME280;41287;47.554;7.844;2023-05-08T02:27:49;98298.16;;;19.12;56.70
55418;BME280;41287;47.554;7.844;2023-05-08T02:30:17;98296.25;;;19.12;56.73
55418;BME280;41287;47.554;7.844;2023-05-08T02:32:44;98303.59;;;19.12;56.89
55418;BME280;41287;47.554;7.844;2023-05-08T02:35:12;98302.78;;;19.11;56.72
55418;BME280;41287;47.554;7.844;2023-05-08T02:37:41;98296.25;;;19.12;56.85
55418;BME280;41287;47.554;7.844;2023-05-08T02:40:08;98305.50;;;19.11;56.80
55418;BME280;41287;47.554;7.844;2023-05-08T02:42:35;98298.16;;;19.12;56.84
55418;BME280;41287;47.554;7.844;2023-05-08T02:45:02;98304.38;;;19.12;56.76
55418;BME280;41287;47.554;7.844;2023-05-08T02:47:36;98302.78;;;19.11;56.87
55418;BME280;41287;47.554;7.844;2023-05-08T02:50:09;98301.66;;;19.12;56.83
55418;BME280;41287;47.554;7.844;2023-05-08T02:52:44;98305.50;;;19.11;56.73
55418;BME280;41287;47.554;7.844;2023-05-08T03:00:59;98312.84;;;19.11;56.78
55418;BME280;41287;47.554;7.844;2023-05-08T03:03:43;98308.56;;;19.10;56.80
55418;BME280;41287;47.554;7.844;2023-05-08T03:06:17;98303.16;;;19.10;56.85
55418;BME280;41287;47.554;7.844;2023-05-08T03:08:44;98305.50;;;19.11;56.79
55418;BME280;41287;47.554;7.844;2023-05-08T03:11:14;98307.44;;;19.11;56.95
55418;BME280;41287;47.554;7.844;2023-05-08T03:13:41;98299.28;;;19.11;56.93
55418;BME280;41287;47.554;7.844;2023-05-08T03:16:13;98296.56;;;19.11;56.95
55418;BME280;41287;47.554;7.844;2023-05-08T03:18:44;98296.56;;;19.11;56.92
55418;BME280;41287;47.554;7.844;2023-05-08T03:21:12;98302.78;;;19.11;56.98
55418;BME280;41287;47.554;7.844;2023-05-08T03:23:42;98295.00;;;19.10;57.00
55418;BME280;41287;47.554;7.844;2023-05-08T03:26:08;98298.50;;;19.10;56.93
55418;BME280;41287;47.554;7.844;2023-05-08T03:28:36;98296.56;;;19.11;56.91
55418;BME280;41287;47.554;7.844;2023-05-08T03:31:04;98290.38;;;19.10;56.94
55418;BME280;41287;47.554;7.844;2023-05-08T03:33:31;98297.34;;;19.11;57.03
55418;BME280;41287;47.554;7.844;2023-05-08T03:35:58;98295.44;;;19.12;56.92
55418;BME280;41287;47.554;7.844;2023-05-08T03:38:23;98296.56;;;19.11;56.95
55418;BME280;41287;47.554;7.844;2023-05-08T03:40:51;98299.28;;;19.11;56.69
55418;BME280;41287;47.554;7.844;2023-05-08T03:43:17;98302.78;;;19.11;57.01
55418;BME280;41287;47.554;7.844;2023-05-08T03:45:43;98310.16;;;19.11;56.95
55418;BME280;41287;47.554;7.844;2023-05-08T03:48:12;98298.16;;;19.12;56.85
55418;BME280;41287;47.554;7.844;2023-05-08T03:50:39;98309.03;;;19.12;56.99
55418;BME280;41287;47.554;7.844;2023-05-08T03:53:05;98304.72;;;19.11;56.86
55418;BME280;41287;47.554;7.844;2023-05-08T03:55:31;98304.72;;;19.11;56.99
55418;BME280;41287;47.554;7.844;2023-05-08T04:03:52;98305.06;;;19.09;56.96
55418;BME280;41287;47.554;7.844;2023-05-08T04:06:27;98306.31;;;19.12;57.38
55418;BME280;41287;47.554;7.844;2023-05-08T04:09:02;98300.88;;;19.12;57.58
55418;BME280;41287;47.554;7.844;2023-05-08T04:11:43;98304.06;;;19.14;57.64
55418;BME280;41287;47.554;7.844;2023-05-08T04:14:12;98307.69;;;19.18;57.54
55418;BME280;41287;47.554;7.844;2023-05-08T04:16:42;98312.25;;;19.26;57.40
55418;BME280;41287;47.554;7.844;2023-05-08T04:19:19;98310.03;;;19.28;57.71
55418;BME280;41287;47.554;7.844;2023-05-08T04:21:50;98303.94;;;19.31;58.10
55418;BME280;41287;47.554;7.844;2023-05-08T04:24:21;98314.94;;;19.34;58.55
55418;BME280;41287;47.554;7.844;2023-05-08T04:26:47;98312.69;;;19.37;59.15
55418;BME280;41287;47.554;7.844;2023-05-08T04:29:13;98307.69;;;19.39;60.00
55418;BME280;41287;47.554;7.844;2023-05-08T04:31:39;98301.59;;;19.42;60.89
55418;BME280;41287;47.554;7.844;2023-05-08T04:34:04;98313.72;;;19.44;61.81
55418;BME280;41287;47.554;7.844;2023-05-08T04:36:31;98313.09;;;19.47;62.91
55418;BME280;41287;47.554;7.844;2023-05-08T04:38:57;98315.16;;;19.50;63.42
55418;BME280;41287;47.554;7.844;2023-05-08T04:41:23;98310.03;;;19.49;62.39
55418;BME280;41287;47.554;7.844;2023-05-08T04:43:48;98304.94;;;19.47;60.99
55418;BME280;41287;47.554;7.844;2023-05-08T04:46:15;98308.31;;;19.44;60.50
55418;BME280;41287;47.554;7.844;2023-05-08T04:48:42;98315.97;;;19.42;60.23
55418;BME280;41287;47.554;7.844;2023-05-08T04:51:08;98314.38;;;19.41;59.95
55418;BME280;41287;47.554;7.844;2023-05-08T04:53:33;98322.88;;;19.40;59.84
55418;BME280;41287;47.554;7.844;2023-05-08T04:55:58;98315.03;;;19.38;59.65
55418;BME280;41287;47.554;7.844;2023-05-08T04:58:24;98316.19;;;19.37;59.69
55418;BME280;41287;47.554;7.844;2023-05-08T05:00:49;98315.41;;;19.37;59.66
55418;BME280;41287;47.554;7.844;2023-05-08T05:03:14;98326.59;;;19.35;59.67
55418;BME280;41287;47.554;7.844;2023-05-08T05:05:40;98326.59;;;19.35;59.49
55418;BME280;41287;47.554;7.844;2023-05-08T05:08:05;98323.06;;;19.34;59.45
55418;BME280;41287;47.554;7.844;2023-05-08T05:10:32;98325.78;;;19.34;59.34
55418;BME280;41287;47.554;7.844;2023-05-08T05:12:59;98328.84;;;19.33;59.24
55418;BME280;41287;47.554;7.844;2023-05-08T05:15:25;98328.03;;;19.32;59.17
55418;BME280;41287;47.554;7.844;2023-05-08T05:17:50;98330.75;;;19.32;59.17
55418;BME280;41287;47.554;7.844;2023-05-08T05:20:17;98329.16;;;19.31;59.03
55418;BME280;41287;47.554;7.844;2023-05-08T05:22:43;98331.88;;;19.31;59.02
55418;BME280;41287;47.554;7.844;2023-05-08T05:25:08;98333.81;;;19.31;59.02
55418;BME280;41287;47.554;7.844;2023-05-08T05:27:34;98329.50;;;19.30;59.04
55418;BME280;41287;47.554;7.844;2023-05-08T05:30:00;98327.59;;;19.30;58.96
55418;BME280;41287;47.554;7.844;2023-05-08T05:32:28;98343.09;;;19.30;59.06
55418;BME280;41287;47.554;7.844;2023-05-08T05:34:56;98337.66;;;19.30;58.98
55418;BME280;41287;47.554;7.844;2023-05-08T05:37:21;98340.38;;;19.30;58.93
55418;BME280;41287;47.554;7.844;2023-05-08T05:39:47;98342.31;;;19.29;58.96
55418;BME280;41287;47.554;7.844;2023-05-08T05:42:12;98341.19;;;19.30;58.96
55418;BME280;41287;47.554;7.844;2023-05-08T05:44:38;98341.50;;;19.29;58.92
55418;BME280;41287;47.554;7.844;2023-05-08T05:47:03;98343.41;;;19.28;58.90
55418;BME280;41287;47.554;7.844;2023-05-08T05:49:34;98340.72;;;19.28;58.85
55418;BME280;41287;47.554;7.844;2023-05-08T05:51:59;98343.41;;;19.28;58.76
55418;BME280;41287;47.554;7.844;2023-05-08T05:54:26;98338.00;;;19.28;58.85
55418;BME280;41287;47.554;7.844;2023-05-08T05:56:52;98343.41;;;19.28;58.78
55418;BME280;41287;47.554;7.844;2023-05-08T05:59:17;98347.25;;;19.27;58.66
55418;BME280;41287;47.554;7.844;2023-05-08T06:01:42;98341.03;;;19.27;58.40
55418;BME280;41287;47.554;7.844;2023-05-08T06:04:08;98342.63;;;19.28;58.69
55418;BME280;41287;47.554;7.844;2023-05-08T06:06:35;98346.47;;;19.27;58.71
55418;BME280;41287;47.554;7.844;2023-05-08T06:09:03;98349.50;;;19.25;58.66
55418;BME280;41287;47.554;7.844;2023-05-08T06:11:28;98354.63;;;19.27;58.65
55418;BME280;41287;47.554;7.844;2023-05-08T06:13:53;98350.31;;;19.26;58.60
55418;BME280;41287;47.554;7.844;2023-05-08T06:16:19;98353.03;;;19.26;58.49
55418;BME280;41287;47.554;7.844;2023-05-08T06:18:47;98356.53;;;19.26;58.55
55418;BME280;41287;47.554;7.844;2023-05-08T06:21:12;98357.66;;;19.25;58.66
55418;BME280;41287;47.554;7.844;2023-05-08T06:23:38;98349.50;;;19.25;58.48
55418;BME280;41287;47.554;7.844;2023-05-08T06:26:03;98355.72;;;19.26;58.56
55418;BME280;41287;47.554;7.844;2023-05-08T06:28:30;98365.00;;;19.25;58.59
55418;BME280;41287;47.554;7.844;2023-05-08T06:30:56;98352.56;;;19.24;58.53
55418;BME280;41287;47.554;7.844;2023-05-08T06:33:21;98356.84;;;19.25;58.41
55418;BME280;41287;47.554;7.844;2023-05-08T06:35:47;98358.78;;;19.24;58.39
55418;BME280;41287;47.554;7.844;2023-05-08T06:38:14;98354.13;;;19.25;58.46
55418;BME280;41287;47.554;7.844;2023-05-08T06:40:45;98353.34;;;19.24;58.46
55418;BME280;41287;47.554;7.844;2023-05-08T06:43:12;98356.06;;;19.24;58.43
55418;BME280;41287;47.554;7.844;2023-05-08T06:45:38;98352.56;;;19.24;58.40
55418;BME280;41287;47.554;7.844;2023-05-08T06:48:03;98358.00;;;19.24;58.50
55418;BME280;41287;47.554;7.844;2023-05-08T06:50:29;98354.50;;;19.23;58.39
55418;BME280;41287;47.554;7.844;2023-05-08T06:52:55;98357.53;;;19.22;58.34
55418;BME280;41287;47.554;7.844;2023-05-08T06:55:20;98361.06;;;19.22;58.49
55418;BME280;41287;47.554;7.844;2023-05-08T06:57:46;98359.94;;;19.23;58.38
55418;BME280;41287;47.554;7.844;2023-05-08T07:00:11;98345.88;;;19.21;58.41
55418;BME280;41287;47.554;7.844;2023-05-08T07:02:39;98348.25;;;19.23;58.43
55418;BME280;41287;47.554;7.844;2023-05-08T07:05:05;98355.63;;;19.22;58.36
55418;BME280;41287;47.554;7.844;2023-05-08T07:07:31;98357.22;;;19.23;58.32
55418;BME280;41287;47.554;7.844;2023-05-08T07:09:56;98354.03;;;19.21;58.32
55418;BME280;41287;47.554;7.844;2023-05-08T07:12:21;98362.97;;;19.22;58.38
55418;BME280;41287;47.554;7.844;2023-05-08T07:14:47;98355.16;;;19.20;58.33
55418;BME280;41287;47.554;7.844;2023-05-08T07:17:12;98354.81;;;19.22;58.26
55418;BME280;41287;47.554;7.844;2023-05-08T07:19:37;98362.16;;;19.21;58.39
55418;BME280;41287;47.554;7.844;2023-05-08T07:22:03;98357.84;;;19.20;58.26
55418;BME280;41287;47.554;7.844;2023-05-08T07:24:29;98361.38;;;19.21;58.31
55418;BME280;41287;47.554;7.844;2023-05-08T07:26:54;98357.06;;;19.20;58.29
55418;BME280;41287;47.554;7.844;2023-05-08T07:29:20;98367.59;;;19.21;58.31
55418;BME280;41287;47.554;7.844;2023-05-08T07:31:47;98363.28;;;19.20;58.23
55418;BME280;41287;47.554;7.844;2023-05-08T07:34:16;98368.72;;;19.20;58.43
55418;BME280;41287;47.554;7.844;2023-05-08T07:36:41;98370.66;;;19.20;58.36
55418;BME280;41287;47.554;7.844;2023-05-08T07:39:08;98369.84;;;19.19;58.27
55418;BME280;41287;47.554;7.844;2023-05-08T07:41:34;98373.38;;;19.20;58.25
55418;BME280;41287;47.554;7.844;2023-05-08T07:44:01;98369.84;;;19.19;58.13
55418;BME280;41287;47.554;7.844;2023-05-08T07:46:27;98369.84;;;19.19;58.32
55418;BME280;41287;47.554;7.844;2023-05-08T07:48:52;98372.88;;;19.18;58.35
55418;BME280;41287;47.554;7.844;2023-05-08T07:51:17;98372.88;;;19.18;58.26
55418;BME280;41287;47.554;7.844;2023-05-08T07:53:43;98375.28;;;19.19;58.21
55418;BME280;41287;47.554;7.844;2023-05-08T07:56:08;98370.16;;;19.18;58.36
55418;BME280;41287;47.554;7.844;2023-05-08T07:58:34;98375.28;;;19.19;58.36
55418;BME280;41287;47.554;7.844;2023-05-08T08:00:59;98376.41;;;19.18;58.25
55418;BME280;41287;47.554;7.844;2023-05-08T08:03:26;98372.13;;;19.17;58.20
55418;BME280;41287;47.554;7.844;2023-05-08T08:05:52;98378.31;;;19.18;58.18
55418;BME280;41287;47.554;7.844;2023-05-08T08:08:19;98381.03;;;19.18;58.23
55418;BME280;41287;47.554;7.844;2023-05-08T08:10:45;98369.41;;;19.17;58.13
55418;BME280;41287;47.554;7.844;2023-05-08T08:13:10;98365.88;;;19.17;58.23
55418;BME280;41287;47.554;7.844;2023-05-08T08:15:35;98369.41;;;19.17;58.17
55418;BME280;41287;47.554;7.844;2023-05-08T08:18:01;98369.41;;;19.17;58.16
55418;BME280;41287;47.554;7.844;2023-05-08T08:20:26;98374.03;;;19.17;58.45
55418;BME280;41287;47.554;7.844;2023-05-08T08:22:51;98374.03;;;19.17;58.28
55418;BME280;41287;47.554;7.844;2023-05-08T08:25:17;98380.28;;;19.17;58.28
55418;BME280;41287;47.554;7.844;2023-05-08T08:27:43;98377.56;;;19.17;58.21
55418;BME280;41287;47.554;7.844;2023-05-08T08:30:08;98386.47;;;19.18;58.22
55418;BME280;41287;47.554;7.844;2023-05-08T08:32:33;98375.97;;;19.16;58.26
55418;BME280;41287;47.554;7.844;2023-05-08T08:34:59;98373.25;;;19.16;58.08
55418;BME280;41287;47.554;7.844;2023-05-08T08:37:24;98379.78;;;19.15;58.29
55418;BME280;41287;47.554;7.844;2023-05-08T08:39:50;98381.38;;;19.16;58.27
55418;BME280;41287;47.554;7.844;2023-05-08T08:42:15;98369.72;;;19.16;58.24
55418;BME280;41287;47.554;7.844;2023-05-08T08:44:41;98372.44;;;19.16;58.06
55418;BME280;41287;47.554;7.844;2023-05-08T08:47:09;98374.03;;;19.17;58.11
55418;BME280;41287;47.554;7.844;2023-05-08T08:49:40;98372.75;;;19.14;58.28
55418;BME280;41287;47.554;7.844;2023-05-08T08:52:29;98380.13;;;19.14;58.17
55418;BME280;41287;47.554;7.844;2023-05-08T08:54:59;98376.28;;;19.15;58.14
55418;BME280;41287;47.554;7.844;2023-05-08T08:57:26;98377.88;;;19.16;58.14
55418;BME280;41287;47.554;7.844;2023-05-08T08:59:54;98380.91;;;19.14;58.21
55418;BME280;41287;47.554;7.844;2023-05-08T09:02:20;98377.06;;;19.15;58.11
55418;BME280;41287;47.554;7.844;2023-05-08T09:04:48;98374.38;;;19.15;58.10
55418;BME280;41287;47.554;7.844;2023-05-08T09:07:14;98370.84;;;19.15;58.22
55418;BME280;41287;47.554;7.844;2023-05-08T09:09:39;98371.66;;;19.15;58.20
55418;BME280;41287;47.554;7.844;2023-05-08T09:12:05;98375.47;;;19.14;58.19
55418;BME280;41287;47.554;7.844;2023-05-08T09:14:31;98361.09;;;19.14;58.25
55418;BME280;41287;47.554;7.844;2023-05-08T09:16:56;98370.03;;;19.14;58.13
55418;BME280;41287;47.554;7.844;2023-05-08T09:19:24;98370.84;;;19.15;58.09
55418;BME280;41287;47.554;7.844;2023-05-08T09:21:58;98374.69;;;19.14;58.26
55418;BME280;41287;47.554;7.844;2023-05-08T09:24:23;98372.75;;;19.14;58.07
55418;BME280;41287;47.554;7.844;2023-05-08T09:26:49;98368.44;;;19.13;58.05
55418;BME280;41287;47.554;7.844;2023-05-08T09:29:19;98371.16;;;19.13;58.18
55418;BME280;41287;47.554;7.844;2023-05-08T09:31:50;98364.94;;;19.13;58.24
55418;BME280;41287;47.554;7.844;2023-05-08T09:36:49;98376.59;;;19.13;58.12
55418;BME280;41287;47.554;7.844;2023-05-08T09:39:21;98375.81;;;19.13;58.15
55418;BME280;41287;47.554;7.844;2023-05-08T09:44:25;98375.00;;;19.12;58.16
55418;BME280;41287;47.554;7.844;2023-05-08T09:46:50;98373.09;;;19.13;58.08
55418;BME280;41287;47.554;7.844;2023-05-08T09:49:17;98375.81;;;19.13;58.26
55418;BME280;41287;47.554;7.844;2023-05-08T09:51:51;98376.94;;;19.12;58.05
55418;BME280;41287;47.554;7.844;2023-05-08T09:54:19;98369.56;;;19.12;58.20
55418;BME280;41287;47.554;7.844;2023-05-08T09:56:45;98373.09;;;19.13;58.24
55418;BME280;41287;47.554;7.844;2023-05-08T09:59:24;98380.75;;;19.11;58.12
55418;BME280;41287;47.554;7.844;2023-05-08T10:01:51;98379.63;;;19.12;58.10
55418;BME280;41287;47.554;7.844;2023-05-08T10:04:17;98367.97;;;19.11;58.11
55418;BME280;41287;47.554;7.844;2023-05-08T10:06:42;98373.09;;;19.13;58.07
55418;BME280;41287;47.554;7.844;2023-05-08T10:09:12;98373.41;;;19.11;58.19
55418;BME280;41287;47.554;7.844;2023-05-08T10:11:39;98377.72;;;19.12;57.98
55418;BME280;41287;47.554;7.844;2023-05-08T10:14:05;98380.44;;;19.12;58.28
55418;BME280;41287;47.554;7.844;2023-05-08T10:16:36;98373.41;;;19.11;58.04
55418;BME280;41287;47.554;7.844;2023-05-08T10:19:10;98374.22;;;19.12;58.06
55418;BME280;41287;47.554;7.844;2023-05-08T10:21:39;98376.94;;;19.12;58.05
55418;BME280;41287;47.554;7.844;2023-05-08T10:24:05;98387.00;;;19.11;58.01
55418;BME280;41287;47.554;7.844;2023-05-08T10:26:38;98380.75;;;19.11;58.16
55418;BME280;41287;47.554;7.844;2023-05-08T10:29:12;98376.94;;;19.12;58.10
55418;BME280;41287;47.554;7.844;2023-05-08T10:31:39;98382.22;;;19.08;58.07
55418;BME280;41287;47.554;7.844;2023-05-08T10:34:12;98379.31;;;19.13;58.11
55418;BME280;41287;47.554;7.844;2023-05-08T10:36:38;98375.00;;;19.12;58.17
55418;BME280;41287;47.554;7.844;2023-05-08T10:39:06;98369.91;;;19.11;58.11
55418;BME280;41287;47.554;7.844;2023-05-08T10:41:32;98370.69;;;19.11;58.08
55418;BME280;41287;47.554;7.844;2023-05-08T10:44:00;98367.19;;;19.11;57.99
55418;BME280;41287;47.554;7.844;2023-05-08T10:46:36;98362.09;;;19.09;58.07
55418;BME280;41287;47.554;7.844;2023-05-08T10:52:08;98374.09;;;19.08;58.05
55418;BME280;41287;47.554;7.844;2023-05-08T10:54:47;98364.81;;;19.09;58.26
55418;BME280;41287;47.554;7.844;2023-05-08T10:57:15;98366.41;;;19.10;58.12
55418;BME280;41287;47.554;7.844;2023-05-08T10:59:45;98369.91;;;19.11;58.21
55418;BME280;41287;47.554;7.844;2023-05-08T11:02:11;98360.97;;;19.10;58.19
55418;BME280;41287;47.554;7.844;2023-05-08T11:04:36;98357.47;;;19.10;57.98
55418;BME280;41287;47.554;7.844;2023-05-08T11:07:02;98358.25;;;19.10;58.11
55418;BME280;41287;47.554;7.844;2023-05-08T11:12:27;98354.28;;;19.08;58.21
55418;BME280;41287;47.554;7.844;2023-05-08T11:15:02;98357.78;;;19.08;58.14
55418;BME280;41287;47.554;7.844;2023-05-08T11:17:28;98354.75;;;19.10;57.99
55418;BME280;41287;47.554;7.844;2023-05-08T11:20:04;98358.59;;;19.09;58.11
55418;BME280;41287;47.554;7.844;2023-05-08T11:22:31;98346.59;;;19.10;58.11
55418;BME280;41287;47.554;7.844;2023-05-08T11:25:14;98358.13;;;19.07;58.10
55418;BME280;41287;47.554;7.844;2023-05-08T11:30:38;98351.56;;;19.08;58.19
55418;BME280;41287;47.554;7.844;2023-05-08T11:41:00;98354.28;;;19.08;58.13
55418;BME280;41287;47.554;7.844;2023-05-08T11:43:31;98352.34;;;19.08;58.19
55418;BME280;41287;47.554;7.844;2023-05-08T11:46:15;98353.16;;;19.09;58.14
55418;BME280;41287;47.554;7.844;2023-05-08T11:48:41;98355.06;;;19.08;58.04
55418;BME280;41287;47.554;7.844;2023-05-08T11:51:07;98348.53;;;19.09;58.11
55418;BME280;41287;47.554;7.844;2023-05-08T11:53:33;98355.06;;;19.08;58.12
55418;BME280;41287;47.554;7.844;2023-05-08T11:55:59;98345.00;;;19.09;58.19
55418;BME280;41287;47.554;7.844;2023-05-08T11:58:24;98342.63;;;19.07;57.94
55418;BME280;41287;47.554;7.844;2023-05-08T12:00:50;98344.22;;;19.08;58.07
55418;BME280;41287;47.554;7.844;2023-05-08T12:03:17;98345.00;;;19.09;58.31
55418;BME280;41287;47.554;7.844;2023-05-08T12:05:43;98346.94;;;19.08;58.16
55418;BME280;41287;47.554;7.844;2023-05-08T12:08:10;98353.16;;;19.09;58.19
55418;BME280;41287;47.554;7.844;2023-05-08T12:10:55;98355.72;;;19.05;58.15
55418;BME280;41287;47.554;7.844;2023-05-08T12:13:27;98361.63;;;19.07;58.05
55418;BME280;41287;47.554;7.844;2023-05-08T12:15:54;98345.81;;;19.09;58.09
55418;BME280;41287;47.554;7.844;2023-05-08T12:18:21;98354.28;;;19.08;58.08
55418;BME280;41287;47.554;7.844;2023-05-08T12:20:55;98353.47;;;19.07;58.21
55418;BME280;41287;47.554;7.844;2023-05-08T12:23:21;98345.00;;;19.09;58.21
55418;BME280;41287;47.554;7.844;2023-05-08T12:25:51;98356.19;;;19.07;58.08
55418;BME280;41287;47.554;7.844;2023-05-08T12:28:17;98348.03;;;19.07;58.07
55418;BME280;41287;47.554;7.844;2023-05-08T12:30:43;98354.28;;;19.08;58.06
55418;BME280;41287;47.554;7.844;2023-05-08T12:33:08;98346.94;;;19.08;58.25
55418;BME280;41287;47.554;7.844;2023-05-08T12:35:36;98350.75;;;19.07;58.14
55418;BME280;41287;47.554;7.844;2023-05-08T12:38:04;98354.28;;;19.08;58.20
55418;BME280;41287;47.554;7.844;2023-05-08T12:40:34;98357.00;;;19.08;58.06
55418;BME280;41287;47.554;7.844;2023-05-08T12:43:01;98350.75;;;19.07;58.12
55418;BME280;41287;47.554;7.844;2023-05-08T12:45:32;98357.31;;;19.06;58.13
55418;BME280;41287;47.554;7.844;2023-05-08T12:48:02;98345.00;;;19.09;58.12
55418;BME280;41287;47.554;7.844;2023-05-08T12:50:27;98340.69;;;19.08;58.14
55418;BME280;41287;47.554;7.844;2023-05-08T12:53:01;98345.34;;;19.07;58.25
55418;BME280;41287;47.554;7.844;2023-05-08T12:55:28;98345.81;;;19.09;58.51
55418;BME280;41287;47.554;7.844;2023-05-08T13:00:32;98348.97;;;19.11;59.02
55418;BME280;41287;47.554;7.844;2023-05-08T13:03:04;98344.34;;;19.12;59.24
55418;BME280;41287;47.554;7.844;2023-05-08T13:05:30;98343.22;;;19.13;59.19
55418;BME280;41287;47.554;7.844;2023-05-08T13:08:02;98345.13;;;19.12;59.25
55418;BME280;41287;47.554;7.844;2023-05-08T13:13:15;98351.34;;;19.13;59.23
55418;BME280;41287;47.554;7.844;2023-05-08T13:15:43;98347.53;;;19.14;59.29
55418;BME280;41287;47.554;7.844;2023-05-08T13:18:12;98343.69;;;19.15;59.43
55418;BME280;41287;47.554;7.844;2023-05-08T13:20:39;98342.56;;;19.16;59.48
55418;BME280;41287;47.554;7.844;2023-05-08T13:23:04;98333.63;;;19.15;59.10
55418;BME280;41287;47.554;7.844;2023-05-08T13:25:30;98332.50;;;19.16;59.42
55418;BME280;41287;47.554;7.844;2023-05-08T13:27:57;98335.22;;;19.16;59.41
55418;BME280;41287;47.554;7.844;2023-05-08T13:30:23;98331.69;;;19.16;59.46
55418;BME280;41287;47.554;7.844;2023-05-08T13:32:48;98327.84;;;19.17;59.45
55418;BME280;41287;47.554;7.844;2023-05-08T13:35:14;98326.25;;;19.16;59.43
55418;BME280;41287;47.554;7.844;2023-05-08T13:37:39;98329.44;;;19.18;59.38
55418;BME280;41287;47.554;7.844;2023-05-08T13:40:05;98320.50;;;19.17;59.47
55418;BME280;41287;47.554;7.844;2023-05-08T13:42:31;98318.56;;;19.18;59.46
55418;BME280;41287;47.554;7.844;2023-05-08T13:44:56;98315.06;;;19.17;59.16
55418;BME280;41287;47.554;7.844;2023-05-08T13:47:22;98319.72;;;19.17;59.33
55418;BME280;41287;47.554;7.844;2023-05-08T13:49:47;98318.13;;;19.16;59.16
55418;BME280;41287;47.554;7.844;2023-05-08T13:52:14;98309.16;;;19.15;59.12
55418;BME280;41287;47.554;7.844;2023-05-08T13:54:41;98305.66;;;19.15;58.92
55418;BME280;41287;47.554;7.844;2023-05-08T13:57:06;98308.38;;;19.15;58.95